sensor_id;sensor_type;location;lat;lon;timestamp;P1;durP1;ratioP1;P2;durP2;ratioP2
7150;SDS011;3617;48.836;9.172;2023-01-23T00:00:49;18.70;;;10.30;;
7150;SDS011;3617;48.836;9.172;2023-01-23T00:03:15;17.17;;;9.67;;
7150;SDS011;3617;48.836;9.172;2023-01-23T00:05:41;20.87;;;10.70;;
7150;SDS011;3617;48.836;9.172;2023-01-23T00:08:07;16.37;;;10.17;;
7150;SDS011;3617;48.836;9.172;2023-01-23T00:10:33;19.73;;;11.10;;
7150;SDS011;3617;48.836;9.172;2023-01-23T00:12:59;17.07;;;9.77;;
7150;SDS011;3617;48.836;9.172;2023-01-23T00:15:25;19.13;;;10.83;;
7150;SDS011;3617;48.836;9.172;2023-01-23T00:17:51;18.27;;;9.93;;
7150;SDS011;3617;48.836;9.172;2023-01-23T00:20:17;17.67;;;9.60;;
7150;SDS011;3617;48.836;9.172;2023-01-23T00:22:43;21.87;;;11.60;;
7150;SDS011;3617;48.836;9.172;2023-01-23T00:25:09;18.70;;;10.17;;
7150;SDS011;3617;48.836;9.172;2023-01-23T00:27:35;17.80;;;9.70;;
7150;SDS011;3617;48.836;9.172;2023-01-23T00:30:02;17.70;;;9.87;;
7150;SDS011;3617;48.836;9.172;2023-01-23T00:32:28;18.23;;;10.47;;
7150;SDS011;3617;48.836;9.172;2023-01-23T00:34:54;18.83;;;10.00;;
7150;SDS011;3617;48.836;9.172;2023-01-23T00:37:20;19.03;;;10.43;;
7150;SDS011;3617;48.836;9.172;2023-01-23T00:39:46;17.77;;;9.70;;
7150;SDS011;3617;48.836;9.172;2023-01-23T00:42:14;16.67;;;9.00;;
7150;SDS011;3617;48.836;9.172;2023-01-23T00:44:41;17.43;;;9.60;;
7150;SDS011;3617;48.836;9.172;2023-01-23T00:47:07;21.63;;;10.27;;
7150;SDS011;3617;48.836;9.172;2023-01-23T00:49:33;20.33;;;9.63;;
7150;SDS011;3617;48.836;9.172;2023-01-23T00:51:59;16.87;;;9.73;;
7150;SDS011;3617;48.836;9.172;2023-01-23T00:54:25;17.80;;;10.13;;
7150;SDS011;3617;48.836;9.172;2023-01-23T00:56:51;17.70;;;9.67;;
7150;SDS011;3617;48.836;9.172;2023-01-23T00:59:17;17.20;;;9.70;;
7150;SDS011;3617;48.836;9.172;2023-01-23T01:01:43;15.97;;;9.50;;
7150;SDS011;3617;48.836;9.172;2023-01-23T01:04:09;16.90;;;9.23;;
7150;SDS011;3617;48.836;9.172;2023-01-23T01:06:35;17.10;;;10.10;;
7150;SDS011;3617;48.836;9.172;2023-01-23T01:09:01;17.53;;;9.47;;
7150;SDS011;3617;48.836;9.172;2023-01-23T01:11:28;18.23;;;9.03;;
7150;SDS011;3617;48.836;9.172;2023-01-23T01:13:54;17.97;;;10.10;;
7150;SDS011;3617;48.836;9.172;2023-01-23T01:16:20;15.93;;;8.90;;
7150;SDS011;3617;48.836;9.172;2023-01-23T01:18:48;17.70;;;10.07;;
7150;SDS011;3617;48.836;9.172;2023-01-23T01:21:14;18.77;;;10.70;;
7150;SDS011;3617;48.836;9.172;2023-01-23T01:23:40;17.87;;;10.20;;
7150;SDS011;3617;48.836;9.172;2023-01-23T01:26:07;16.43;;;9.40;;
7150;SDS011;3617;48.836;9.172;2023-01-23T01:28:33;18.07;;;10.77;;
7150;SDS011;3617;48.836;9.172;2023-01-23T01:31:04;20.10;;;10.13;;
7150;SDS011;3617;48.836;9.172;2023-01-23T01:33:31;21.03;;;10.40;;
7150;SDS011;3617;48.836;9.172;2023-01-23T01:35:58;18.67;;;10.30;;
7150;SDS011;3617;48.836;9.172;2023-01-23T01:38:24;17.97;;;10.17;;
7150;SDS011;3617;48.836;9.172;2023-01-23T01:40:51;18.53;;;10.23;;
7150;SDS011;3617;48.836;9.172;2023-01-23T01:43:19;16.53;;;9.43;;
7150;SDS011;3617;48.836;9.172;2023-01-23T01:51:16;16.57;;;8.97;;
7150;SDS011;3617;48.836;9.172;2023-01-23T01:53:43;18.13;;;10.03;;
7150;SDS011;3617;48.836;9.172;2023-01-23T01:56:11;17.27;;;9.33;;
7150;SDS011;3617;48.836;9.172;2023-01-23T01:58:39;17.10;;;9.80;;
7150;SDS011;3617;48.836;9.172;2023-01-23T02:01:07;16.87;;;9.50;;
7150;SDS011;3617;48.836;9.172;2023-01-23T02:03:33;16.53;;;9.57;;
7150;SDS011;3617;48.836;9.172;2023-01-23T02:05:59;17.20;;;10.13;;
7150;SDS011;3617;48.836;9.172;2023-01-23T02:08:30;18.90;;;9.97;;
7150;SDS011;3617;48.836;9.172;2023-01-23T02:10:57;18.97;;;9.73;;
7150;SDS011;3617;48.836;9.172;2023-01-23T02:13:28;16.83;;;9.27;;
7150;SDS011;3617;48.836;9.172;2023-01-23T02:15:57;16.27;;;8.60;;
7150;SDS011;3617;48.836;9.172;2023-01-23T02:18:24;16.20;;;9.43;;
7150;SDS011;3617;48.836;9.172;2023-01-23T02:20:51;19.03;;;9.90;;
7150;SDS011;3617;48.836;9.172;2023-01-23T02:28:12;17.70;;;9.37;;
7150;SDS011;3617;48.836;9.172;2023-01-23T02:30:39;17.87;;;9.87;;
7150;SDS011;3617;48.836;9.172;2023-01-23T02:35:45;16.10;;;9.17;;
7150;SDS011;3617;48.836;9.172;2023-01-23T02:38:11;16.17;;;9.00;;
7150;SDS011;3617;48.836;9.172;2023-01-23T02:40:41;18.43;;;9.20;;
7150;SDS011;3617;48.836;9.172;2023-01-23T02:43:08;17.20;;;9.80;;
7150;SDS011;3617;48.836;9.172;2023-01-23T02:45:35;16.83;;;9.53;;
7150;SDS011;3617;48.836;9.172;2023-01-23T02:48:01;15.73;;;9.27;;
7150;SDS011;3617;48.836;9.172;2023-01-23T02:50:30;16.53;;;8.87;;
7150;SDS011;3617;48.836;9.172;2023-01-23T02:52:56;16.40;;;9.23;;
7150;SDS011;3617;48.836;9.172;2023-01-23T02:55:22;18.43;;;9.93;;
7150;SDS011;3617;48.836;9.172;2023-01-23T02:57:58;16.20;;;8.80;;
7150;SDS011;3617;48.836;9.172;2023-01-23T03:00:43;17.80;;;10.23;;
7150;SDS011;3617;48.836;9.172;2023-01-23T03:03:09;19.47;;;10.07;;
7150;SDS011;3617;48.836;9.172;2023-01-23T03:05:35;18.93;;;10.00;;
7150;SDS011;3617;48.836;9.172;2023-01-23T03:08:02;15.07;;;8.97;;
7150;SDS011;3617;48.836;9.172;2023-01-23T03:10:28;17.83;;;9.10;;
7150;SDS011;3617;48.836;9.172;2023-01-23T03:12:54;18.90;;;10.23;;
7150;SDS011;3617;48.836;9.172;2023-01-23T03:15:25;18.73;;;10.03;;
7150;SDS011;3617;48.836;9.172;2023-01-23T03:17:51;16.53;;;10.07;;
7150;SDS011;3617;48.836;9.172;2023-01-23T03:20:18;17.03;;;8.93;;
7150;SDS011;3617;48.836;9.172;2023-01-23T03:22:46;20.33;;;10.47;;
7150;SDS011;3617;48.836;9.172;2023-01-23T03:25:12;20.50;;;9.63;;
7150;SDS011;3617;48.836;9.172;2023-01-23T03:27:38;18.20;;;10.20;;
7150;SDS011;3617;48.836;9.172;2023-01-23T03:30:04;17.13;;;9.23;;
7150;SDS011;3617;48.836;9.172;2023-01-23T03:32:46;17.60;;;9.83;;
7150;SDS011;3617;48.836;9.172;2023-01-23T03:35:12;15.37;;;9.10;;
7150;SDS011;3617;48.836;9.172;2023-01-23T03:37:40;20.23;;;10.07;;
7150;SDS011;3617;48.836;9.172;2023-01-23T03:40:09;19.57;;;10.17;;
7150;SDS011;3617;48.836;9.172;2023-01-23T03:42:55;17.37;;;9.37;;
7150;SDS011;3617;48.836;9.172;2023-01-23T03:45:21;19.17;;;9.57;;
7150;SDS011;3617;48.836;9.172;2023-01-23T03:47:47;17.93;;;9.80;;
7150;SDS011;3617;48.836;9.172;2023-01-23T03:50:13;19.77;;;9.70;;
7150;SDS011;3617;48.836;9.172;2023-01-23T03:52:39;17.70;;;10.30;;
7150;SDS011;3617;48.836;9.172;2023-01-23T03:55:06;16.77;;;9.33;;
7150;SDS011;3617;48.836;9.172;2023-01-23T03:57:32;19.37;;;9.93;;
7150;SDS011;3617;48.836;9.172;2023-01-23T03:59:58;17.90;;;10.10;;
7150;SDS011;3617;48.836;9.172;2023-01-23T04:02:24;17.40;;;10.10;;
7150;SDS011;3617;48.836;9.172;2023-01-23T04:04:50;21.50;;;10.90;;
7150;SDS011;3617;48.836;9.172;2023-01-23T04:07:16;16.80;;;9.77;;
7150;SDS011;3617;48.836;9.172;2023-01-23T04:09:42;18.63;;;9.60;;
7150;SDS011;3617;48.836;9.172;2023-01-23T04:12:08;16.53;;;9.83;;
7150;SDS011;3617;48.836;9.172;2023-01-23T04:14:34;17.60;;;9.37;;
7150;SDS011;3617;48.836;9.172;2023-01-23T04:17:02;18.57;;;10.77;;
7150;SDS011;3617;48.836;9.172;2023-01-23T04:19:28;16.47;;;9.30;;
7150;SDS011;3617;48.836;9.172;2023-01-23T04:21:54;18.40;;;9.73;;
7150;SDS011;3617;48.836;9.172;2023-01-23T04:24:21;18.80;;;9.93;;
7150;SDS011;3617;48.836;9.172;2023-01-23T04:26:47;18.60;;;9.83;;
7150;SDS011;3617;48.836;9.172;2023-01-23T04:29:13;22.67;;;10.43;;
7150;SDS011;3617;48.836;9.172;2023-01-23T04:31:39;18.67;;;10.30;;
7150;SDS011;3617;48.836;9.172;2023-01-23T04:34:05;18.87;;;9.30;;
7150;SDS011;3617;48.836;9.172;2023-01-23T04:36:31;17.67;;;9.30;;
7150;SDS011;3617;48.836;9.172;2023-01-23T04:38:57;18.60;;;9.70;;
7150;SDS011;3617;48.836;9.172;2023-01-23T04:41:25;20.37;;;10.50;;
7150;SDS011;3617;48.836;9.172;2023-01-23T04:43:51;18.03;;;9.53;;
7150;SDS011;3617;48.836;9.172;2023-01-23T04:46:17;21.50;;;11.33;;
7150;SDS011;3617;48.836;9.172;2023-01-23T04:48:43;16.23;;;8.67;;
7150;SDS011;3617;48.836;9.172;2023-01-23T04:51:09;16.77;;;9.30;;
7150;SDS011;3617;48.836;9.172;2023-01-23T04:53:35;18.57;;;9.97;;
7150;SDS011;3617;48.836;9.172;2023-01-23T04:56:01;18.90;;;9.27;;
7150;SDS011;3617;48.836;9.172;2023-01-23T04:58:28;18.80;;;10.20;;
7150;SDS011;3617;48.836;9.172;2023-01-23T05:00:54;18.07;;;9.70;;
7150;SDS011;3617;48.836;9.172;2023-01-23T05:03:25;18.33;;;9.40;;
7150;SDS011;3617;48.836;9.172;2023-01-23T05:05:51;15.63;;;9.00;;
7150;SDS011;3617;48.836;9.172;2023-01-23T05:08:17;19.33;;;10.73;;
7150;SDS011;3617;48.836;9.172;2023-01-23T05:10:43;19.60;;;9.33;;
7150;SDS011;3617;48.836;9.172;2023-01-23T05:13:09;20.20;;;9.60;;
7150;SDS011;3617;48.836;9.172;2023-01-23T05:15:35;16.40;;;9.63;;
7150;SDS011;3617;48.836;9.172;2023-01-23T05:18:02;17.53;;;9.50;;
7150;SDS011;3617;48.836;9.172;2023-01-23T05:20:28;19.37;;;10.13;;
7150;SDS011;3617;48.836;9.172;2023-01-23T05:22:54;18.80;;;9.67;;
7150;SDS011;3617;48.836;9.172;2023-01-23T05:25:21;16.73;;;9.37;;
7150;SDS011;3617;48.836;9.172;2023-01-23T05:27:47;16.53;;;9.20;;
7150;SDS011;3617;48.836;9.172;2023-01-23T05:30:13;15.60;;;8.57;;
7150;SDS011;3617;48.836;9.172;2023-01-23T05:32:39;16.30;;;9.10;;
7150;SDS011;3617;48.836;9.172;2023-01-23T05:35:05;17.67;;;9.27;;
7150;SDS011;3617;48.836;9.172;2023-01-23T05:37:31;17.07;;;8.87;;
7150;SDS011;3617;48.836;9.172;2023-01-23T05:39:57;18.90;;;10.33;;
7150;SDS011;3617;48.836;9.172;2023-01-23T05:42:23;18.00;;;9.83;;
7150;SDS011;3617;48.836;9.172;2023-01-23T05:44:49;18.90;;;9.87;;
7150;SDS011;3617;48.836;9.172;2023-01-23T05:47:15;18.97;;;9.40;;
7150;SDS011;3617;48.836;9.172;2023-01-23T05:49:41;18.17;;;10.17;;
7150;SDS011;3617;48.836;9.172;2023-01-23T05:52:09;17.87;;;9.50;;
7150;SDS011;3617;48.836;9.172;2023-01-23T05:54:35;17.53;;;9.17;;
7150;SDS011;3617;48.836;9.172;2023-01-23T05:57:01;15.57;;;8.73;;
7150;SDS011;3617;48.836;9.172;2023-01-23T05:59:27;16.60;;;9.13;;
7150;SDS011;3617;48.836;9.172;2023-01-23T06:01:53;18.10;;;9.30;;
7150;SDS011;3617;48.836;9.172;2023-01-23T06:04:19;17.87;;;9.30;;
7150;SDS011;3617;48.836;9.172;2023-01-23T06:06:45;17.57;;;9.50;;
7150;SDS011;3617;48.836;9.172;2023-01-23T06:09:11;17.67;;;9.67;;
7150;SDS011;3617;48.836;9.172;2023-01-23T06:11:38;18.67;;;9.23;;
7150;SDS011;3617;48.836;9.172;2023-01-23T06:14:04;19.30;;;10.07;;
7150;SDS011;3617;48.836;9.172;2023-01-23T06:16:30;18.50;;;9.13;;
7150;SDS011;3617;48.836;9.172;2023-01-23T06:18:56;18.40;;;9.37;;
7150;SDS011;3617;48.836;9.172;2023-01-23T06:21:22;16.53;;;9.20;;
7150;SDS011;3617;48.836;9.172;2023-01-23T06:23:48;20.50;;;10.97;;
7150;SDS011;3617;48.836;9.172;2023-01-23T06:26:14;21.77;;;9.37;;
7150;SDS011;3617;48.836;9.172;2023-01-23T06:28:40;16.53;;;9.10;;
7150;SDS011;3617;48.836;9.172;2023-01-23T06:31:06;17.20;;;9.53;;
7150;SDS011;3617;48.836;9.172;2023-01-23T06:33:34;17.93;;;9.00;;
7150;SDS011;3617;48.836;9.172;2023-01-23T06:36:00;17.20;;;9.93;;
7150;SDS011;3617;48.836;9.172;2023-01-23T06:38:27;19.67;;;10.37;;
7150;SDS011;3617;48.836;9.172;2023-01-23T06:40:53;17.27;;;9.77;;
7150;SDS011;3617;48.836;9.172;2023-01-23T06:43:20;19.03;;;9.47;;
7150;SDS011;3617;48.836;9.172;2023-01-23T06:45:46;19.70;;;10.27;;
7150;SDS011;3617;48.836;9.172;2023-01-23T06:48:12;20.17;;;9.37;;
7150;SDS011;3617;48.836;9.172;2023-01-23T06:50:39;20.13;;;10.17;;
7150;SDS011;3617;48.836;9.172;2023-01-23T06:53:05;18.07;;;9.60;;
7150;SDS011;3617;48.836;9.172;2023-01-23T06:55:31;18.13;;;9.70;;
7150;SDS011;3617;48.836;9.172;2023-01-23T06:57:57;17.57;;;8.90;;
7150;SDS011;3617;48.836;9.172;2023-01-23T07:00:23;16.20;;;9.17;;
7150;SDS011;3617;48.836;9.172;2023-01-23T07:02:49;18.50;;;9.63;;
7150;SDS011;3617;48.836;9.172;2023-01-23T07:05:17;16.30;;;8.77;;
7150;SDS011;3617;48.836;9.172;2023-01-23T07:07:43;18.80;;;9.40;;
7150;SDS011;3617;48.836;9.172;2023-01-23T07:10:09;17.83;;;9.43;;
7150;SDS011;3617;48.836;9.172;2023-01-23T07:12:35;17.17;;;9.10;;
7150;SDS011;3617;48.836;9.172;2023-01-23T07:15:01;16.93;;;9.10;;
7150;SDS011;3617;48.836;9.172;2023-01-23T07:17:27;19.07;;;9.67;;
7150;SDS011;3617;48.836;9.172;2023-01-23T07:19:53;18.70;;;10.03;;
7150;SDS011;3617;48.836;9.172;2023-01-23T07:22:20;17.20;;;9.20;;
7150;SDS011;3617;48.836;9.172;2023-01-23T07:24:46;19.07;;;10.07;;
7150;SDS011;3617;48.836;9.172;2023-01-23T07:27:13;19.67;;;9.87;;
7150;SDS011;3617;48.836;9.172;2023-01-23T07:29:39;16.83;;;9.63;;
7150;SDS011;3617;48.836;9.172;2023-01-23T07:32:05;20.07;;;10.20;;
7150;SDS011;3617;48.836;9.172;2023-01-23T07:34:31;18.50;;;9.80;;
7150;SDS011;3617;48.836;9.172;2023-01-23T07:36:57;18.60;;;10.00;;
7150;SDS011;3617;48.836;9.172;2023-01-23T07:39:23;23.37;;;10.97;;
7150;SDS011;3617;48.836;9.172;2023-01-23T07:41:49;20.07;;;10.60;;
7150;SDS011;3617;48.836;9.172;2023-01-23T07:44:16;19.87;;;10.77;;
7150;SDS011;3617;48.836;9.172;2023-01-23T07:46:43;19.33;;;10.17;;
7150;SDS011;3617;48.836;9.172;2023-01-23T07:49:09;18.90;;;9.93;;
7150;SDS011;3617;48.836;9.172;2023-01-23T07:51:35;21.80;;;10.77;;
7150;SDS011;3617;48.836;9.172;2023-01-23T07:54:01;20.20;;;10.47;;
7150;SDS011;3617;48.836;9.172;2023-01-23T07:56:27;22.33;;;11.07;;
7150;SDS011;3617;48.836;9.172;2023-01-23T07:58:53;18.63;;;10.13;;
7150;SDS011;3617;48.836;9.172;2023-01-23T08:01:19;22.20;;;11.60;;
7150;SDS011;3617;48.836;9.172;2023-01-23T08:03:45;21.40;;;12.13;;
7150;SDS011;3617;48.836;9.172;2023-01-23T08:06:11;22.97;;;11.10;;
7150;SDS011;3617;48.836;9.172;2023-01-23T08:08:38;21.40;;;10.67;;
7150;SDS011;3617;48.836;9.172;2023-01-23T08:11:04;19.90;;;10.47;;
7150;SDS011;3617;48.836;9.172;2023-01-23T08:13:30;23.53;;;10.67;;
7150;SDS011;3617;48.836;9.172;2023-01-23T08:15:57;22.20;;;10.07;;
7150;SDS011;3617;48.836;9.172;2023-01-23T08:18:23;23.10;;;10.30;;
7150;SDS011;3617;48.836;9.172;2023-01-23T08:20:56;21.83;;;10.20;;
7150;SDS011;3617;48.836;9.172;2023-01-23T08:23:23;21.47;;;10.13;;
7150;SDS011;3617;48.836;9.172;2023-01-23T08:25:53;21.10;;;11.20;;
7150;SDS011;3617;48.836;9.172;2023-01-23T08:28:19;22.53;;;11.13;;
7150;SDS011;3617;48.836;9.172;2023-01-23T08:30:45;21.13;;;11.00;;
7150;SDS011;3617;48.836;9.172;2023-01-23T08:33:11;23.23;;;9.73;;
7150;SDS011;3617;48.836;9.172;2023-01-23T08:35:37;19.47;;;10.43;;
7150;SDS011;3617;48.836;9.172;2023-01-23T08:38:03;19.77;;;10.50;;
7150;SDS011;3617;48.836;9.172;2023-01-23T08:40:32;19.47;;;10.17;;
7150;SDS011;3617;48.836;9.172;2023-01-23T08:42:58;18.27;;;9.80;;
7150;SDS011;3617;48.836;9.172;2023-01-23T08:45:24;17.00;;;9.80;;
7150;SDS011;3617;48.836;9.172;2023-01-23T08:47:49;18.83;;;10.23;;
7150;SDS011;3617;48.836;9.172;2023-01-23T08:50:16;17.80;;;8.63;;
7150;SDS011;3617;48.836;9.172;2023-01-23T08:52:42;17.97;;;10.07;;
7150;SDS011;3617;48.836;9.172;2023-01-23T08:55:08;16.80;;;8.97;;
7150;SDS011;3617;48.836;9.172;2023-01-23T08:57:36;17.33;;;9.70;;
7150;SDS011;3617;48.836;9.172;2023-01-23T09:00:02;15.27;;;8.60;;
7150;SDS011;3617;48.836;9.172;2023-01-23T09:02:28;16.63;;;8.90;;
7150;SDS011;3617;48.836;9.172;2023-01-23T09:04:54;16.53;;;9.43;;
7150;SDS011;3617;48.836;9.172;2023-01-23T09:07:20;17.70;;;8.77;;
7150;SDS011;3617;48.836;9.172;2023-01-23T09:09:46;17.97;;;8.57;;
7150;SDS011;3617;48.836;9.172;2023-01-23T09:12:12;14.67;;;7.73;;
7150;SDS011;3617;48.836;9.172;2023-01-23T09:14:38;14.50;;;8.60;;
7150;SDS011;3617;48.836;9.172;2023-01-23T09:17:04;11.73;;;6.83;;
7150;SDS011;3617;48.836;9.172;2023-01-23T09:19:31;15.60;;;7.33;;
7150;SDS011;3617;48.836;9.172;2023-01-23T09:21:57;14.93;;;7.60;;
7150;SDS011;3617;48.836;9.172;2023-01-23T09:24:23;16.90;;;7.90;;
7150;SDS011;3617;48.836;9.172;2023-01-23T09:26:49;16.93;;;7.17;;
7150;SDS011;3617;48.836;9.172;2023-01-23T09:29:15;15.40;;;7.17;;
7150;SDS011;3617;48.836;9.172;2023-01-23T09:31:41;11.27;;;6.37;;
7150;SDS011;3617;48.836;9.172;2023-01-23T09:34:07;12.50;;;6.83;;
7150;SDS011;3617;48.836;9.172;2023-01-23T09:36:33;13.37;;;7.50;;
7150;SDS011;3617;48.836;9.172;2023-01-23T09:38:59;11.37;;;6.50;;
7150;SDS011;3617;48.836;9.172;2023-01-23T09:41:27;15.13;;;8.17;;
7150;SDS011;3617;48.836;9.172;2023-01-23T09:46:52;15.10;;;7.70;;
7150;SDS011;3617;48.836;9.172;2023-01-23T09:49:38;15.47;;;8.23;;
7150;SDS011;3617;48.836;9.172;2023-01-23T09:52:12;13.70;;;7.77;;
7150;SDS011;3617;48.836;9.172;2023-01-23T09:54:41;15.13;;;7.90;;
7150;SDS011;3617;48.836;9.172;2023-01-23T09:57:12;14.70;;;7.07;;
7150;SDS011;3617;48.836;9.172;2023-01-23T09:59:39;13.30;;;7.13;;
7150;SDS011;3617;48.836;9.172;2023-01-23T10:02:16;10.90;;;6.40;;
7150;SDS011;3617;48.836;9.172;2023-01-23T10:04:44;12.80;;;7.40;;
7150;SDS011;3617;48.836;9.172;2023-01-23T10:09:55;13.47;;;6.90;;
7150;SDS011;3617;48.836;9.172;2023-01-23T10:12:28;13.07;;;6.73;;
7150;SDS011;3617;48.836;9.172;2023-01-23T10:15:04;11.13;;;6.73;;
7150;SDS011;3617;48.836;9.172;2023-01-23T10:25:19;11.87;;;6.43;;
7150;SDS011;3617;48.836;9.172;2023-01-23T10:27:46;14.20;;;6.83;;
7150;SDS011;3617;48.836;9.172;2023-01-23T10:30:16;10.70;;;6.60;;
7150;SDS011;3617;48.836;9.172;2023-01-23T10:32:57;13.80;;;7.27;;
7150;SDS011;3617;48.836;9.172;2023-01-23T10:35:28;13.50;;;7.67;;
7150;SDS011;3617;48.836;9.172;2023-01-23T10:38:01;12.83;;;7.13;;
7150;SDS011;3617;48.836;9.172;2023-01-23T10:40:28;11.37;;;6.63;;
7150;SDS011;3617;48.836;9.172;2023-01-23T10:43:14;11.13;;;6.90;;
7150;SDS011;3617;48.836;9.172;2023-01-23T10:45:41;12.57;;;6.83;;
7150;SDS011;3617;48.836;9.172;2023-01-23T10:50:52;13.20;;;7.50;;
7150;SDS011;3617;48.836;9.172;2023-01-23T10:53:19;11.53;;;7.07;;
7150;SDS011;3617;48.836;9.172;2023-01-23T10:55:45;13.23;;;7.47;;
7150;SDS011;3617;48.836;9.172;2023-01-23T10:58:21;13.00;;;7.90;;
7150;SDS011;3617;48.836;9.172;2023-01-23T11:00:49;13.73;;;7.80;;
7150;SDS011;3617;48.836;9.172;2023-01-23T11:05:50;14.90;;;7.53;;
7150;SDS011;3617;48.836;9.172;2023-01-23T11:08:30;13.00;;;7.67;;
7150;SDS011;3617;48.836;9.172;2023-01-23T11:13:41;12.87;;;7.10;;
7150;SDS011;3617;48.836;9.172;2023-01-23T11:16:11;13.70;;;7.27;;
7150;SDS011;3617;48.836;9.172;2023-01-23T11:18:38;14.93;;;7.80;;
7150;SDS011;3617;48.836;9.172;2023-01-23T11:21:32;13.40;;;7.77;;
7150;SDS011;3617;48.836;9.172;2023-01-23T11:24:17;12.07;;;7.30;;
7150;SDS011;3617;48.836;9.172;2023-01-23T11:26:41;16.27;;;8.03;;
7150;SDS011;3617;48.836;9.172;2023-01-23T11:29:21;12.97;;;7.20;;
7150;SDS011;3617;48.836;9.172;2023-01-23T11:31:48;14.17;;;7.83;;
7150;SDS011;3617;48.836;9.172;2023-01-23T11:34:16;14.17;;;7.53;;
7150;SDS011;3617;48.836;9.172;2023-01-23T11:36:51;15.03;;;7.63;;
7150;SDS011;3617;48.836;9.172;2023-01-23T11:41:45;12.83;;;7.50;;
7150;SDS011;3617;48.836;9.172;2023-01-23T11:44:13;13.93;;;8.33;;
7150;SDS011;3617;48.836;9.172;2023-01-23T11:49:55;14.10;;;7.70;;
7150;SDS011;3617;48.836;9.172;2023-01-23T11:54:57;14.93;;;7.93;;
7150;SDS011;3617;48.836;9.172;2023-01-23T12:02:36;13.43;;;6.90;;
7150;SDS011;3617;48.836;9.172;2023-01-23T12:10:56;17.83;;;8.77;;
7150;SDS011;3617;48.836;9.172;2023-01-23T12:16:15;12.20;;;7.27;;
7150;SDS011;3617;48.836;9.172;2023-01-23T12:21:18;14.13;;;7.53;;
7150;SDS011;3617;48.836;9.172;2023-01-23T12:23:48;14.97;;;7.80;;
7150;SDS011;3617;48.836;9.172;2023-01-23T12:26:18;13.60;;;7.30;;
7150;SDS011;3617;48.836;9.172;2023-01-23T12:42:01;13.33;;;7.93;;
7150;SDS011;3617;48.836;9.172;2023-01-23T12:47:03;15.47;;;8.40;;
7150;SDS011;3617;48.836;9.172;2023-01-23T12:51:59;13.00;;;7.13;;
7150;SDS011;3617;48.836;9.172;2023-01-23T12:54:29;14.03;;;7.47;;
7150;SDS011;3617;48.836;9.172;2023-01-23T12:56:57;15.67;;;7.67;;
7150;SDS011;3617;48.836;9.172;2023-01-23T12:59:38;13.80;;;7.20;;
7150;SDS011;3617;48.836;9.172;2023-01-23T13:04:40;11.87;;;7.00;;
7150;SDS011;3617;48.836;9.172;2023-01-23T13:12:24;17.50;;;7.80;;
7150;SDS011;3617;48.836;9.172;2023-01-23T13:14:51;13.40;;;6.90;;
7150;SDS011;3617;48.836;9.172;2023-01-23T13:17:25;14.77;;;7.20;;
7150;SDS011;3617;48.836;9.172;2023-01-23T13:19:53;13.20;;;7.57;;
7150;SDS011;3617;48.836;9.172;2023-01-23T13:22:51;17.13;;;8.00;;
7150;SDS011;3617;48.836;9.172;2023-01-23T13:25:17;15.43;;;7.80;;
7150;SDS011;3617;48.836;9.172;2023-01-23T13:27:45;13.30;;;7.73;;
7150;SDS011;3617;48.836;9.172;2023-01-23T13:33:00;13.70;;;7.30;;
7150;SDS011;3617;48.836;9.172;2023-01-23T13:43:41;11.93;;;6.67;;
7150;SDS011;3617;48.836;9.172;2023-01-23T13:46:31;12.07;;;7.00;;
7150;SDS011;3617;48.836;9.172;2023-01-23T13:52:09;12.93;;;7.13;;
7150;SDS011;3617;48.836;9.172;2023-01-23T13:54:55;12.87;;;7.03;;
7150;SDS011;3617;48.836;9.172;2023-01-23T13:57:40;13.37;;;7.30;;
7150;SDS011;3617;48.836;9.172;2023-01-23T14:00:11;14.00;;;7.40;;
7150;SDS011;3617;48.836;9.172;2023-01-23T14:02:38;13.40;;;7.30;;
7150;SDS011;3617;48.836;9.172;2023-01-23T14:05:28;15.70;;;7.03;;
7150;SDS011;3617;48.836;9.172;2023-01-23T14:08:00;13.53;;;7.03;;
7150;SDS011;3617;48.836;9.172;2023-01-23T14:10:29;12.77;;;6.63;;
7150;SDS011;3617;48.836;9.172;2023-01-23T14:13:11;13.27;;;7.17;;
7150;SDS011;3617;48.836;9.172;2023-01-23T14:15:38;11.43;;;6.67;;
7150;SDS011;3617;48.836;9.172;2023-01-23T14:18:27;13.67;;;6.70;;
7150;SDS011;3617;48.836;9.172;2023-01-23T14:21:04;12.17;;;6.40;;
7150;SDS011;3617;48.836;9.172;2023-01-23T14:23:38;10.13;;;6.77;;
7150;SDS011;3617;48.836;9.172;2023-01-23T14:26:06;12.40;;;6.80;;
7150;SDS011;3617;48.836;9.172;2023-01-23T14:28:32;11.33;;;7.60;;
7150;SDS011;3617;48.836;9.172;2023-01-23T14:31:00;13.93;;;7.07;;
7150;SDS011;3617;48.836;9.172;2023-01-23T14:33:27;10.67;;;6.43;;
7150;SDS011;3617;48.836;9.172;2023-01-23T14:35:53;12.27;;;6.60;;
7150;SDS011;3617;48.836;9.172;2023-01-23T14:38:31;12.53;;;6.83;;
7150;SDS011;3617;48.836;9.172;2023-01-23T14:40:57;12.97;;;6.57;;
7150;SDS011;3617;48.836;9.172;2023-01-23T14:43:27;12.70;;;7.13;;
7150;SDS011;3617;48.836;9.172;2023-01-23T14:45:57;12.80;;;6.93;;
7150;SDS011;3617;48.836;9.172;2023-01-23T14:48:24;13.43;;;6.77;;
7150;SDS011;3617;48.836;9.172;2023-01-23T14:50:59;11.60;;;7.70;;
7150;SDS011;3617;48.836;9.172;2023-01-23T14:53:25;13.13;;;7.03;;
7150;SDS011;3617;48.836;9.172;2023-01-23T14:55:52;12.60;;;6.93;;
7150;SDS011;3617;48.836;9.172;2023-01-23T14:58:22;14.33;;;6.77;;
7150;SDS011;3617;48.836;9.172;2023-01-23T15:00:49;20.23;;;7.87;;
7150;SDS011;3617;48.836;9.172;2023-01-23T15:06:14;11.00;;;6.73;;
7150;SDS011;3617;48.836;9.172;2023-01-23T15:08:43;12.53;;;7.13;;
7150;SDS011;3617;48.836;9.172;2023-01-23T15:11:09;11.23;;;6.50;;
7150;SDS011;3617;48.836;9.172;2023-01-23T15:13:41;9.77;;;6.00;;
7150;SDS011;3617;48.836;9.172;2023-01-23T15:16:13;13.10;;;7.00;;
7150;SDS011;3617;48.836;9.172;2023-01-23T15:18:39;11.97;;;6.87;;
7150;SDS011;3617;48.836;9.172;2023-01-23T15:21:21;15.53;;;6.97;;
7150;SDS011;3617;48.836;9.172;2023-01-23T15:24:06;12.00;;;6.90;;
7150;SDS011;3617;48.836;9.172;2023-01-23T15:26:33;13.30;;;7.63;;
7150;SDS011;3617;48.836;9.172;2023-01-23T15:29:00;12.17;;;7.20;;
7150;SDS011;3617;48.836;9.172;2023-01-23T15:31:34;11.43;;;6.73;;
7150;SDS011;3617;48.836;9.172;2023-01-23T15:36:36;12.03;;;6.77;;
7150;SDS011;3617;48.836;9.172;2023-01-23T15:39:02;12.57;;;7.30;;
7150;SDS011;3617;48.836;9.172;2023-01-23T15:41:44;13.93;;;7.43;;
7150;SDS011;3617;48.836;9.172;2023-01-23T15:44:16;12.47;;;7.33;;
7150;SDS011;3617;48.836;9.172;2023-01-23T15:46:43;16.70;;;7.97;;
7150;SDS011;3617;48.836;9.172;2023-01-23T15:49:09;10.93;;;6.83;;
7150;SDS011;3617;48.836;9.172;2023-01-23T15:51:35;15.17;;;8.07;;
7150;SDS011;3617;48.836;9.172;2023-01-23T15:54:02;11.97;;;7.53;;
7150;SDS011;3617;48.836;9.172;2023-01-23T15:56:29;13.47;;;8.43;;
7150;SDS011;3617;48.836;9.172;2023-01-23T15:58:56;12.03;;;7.57;;
7150;SDS011;3617;48.836;9.172;2023-01-23T16:01:24;13.47;;;8.00;;
7150;SDS011;3617;48.836;9.172;2023-01-23T16:03:50;12.43;;;7.93;;
7150;SDS011;3617;48.836;9.172;2023-01-23T16:06:17;11.63;;;6.83;;
7150;SDS011;3617;48.836;9.172;2023-01-23T16:08:44;14.57;;;8.00;;
7150;SDS011;3617;48.836;9.172;2023-01-23T16:11:11;14.77;;;8.93;;
7150;SDS011;3617;48.836;9.172;2023-01-23T16:13:37;13.93;;;8.10;;
7150;SDS011;3617;48.836;9.172;2023-01-23T16:16:03;14.93;;;7.93;;
7150;SDS011;3617;48.836;9.172;2023-01-23T16:18:33;13.37;;;7.67;;
7150;SDS011;3617;48.836;9.172;2023-01-23T16:20:59;11.23;;;7.37;;
7150;SDS011;3617;48.836;9.172;2023-01-23T16:23:26;15.23;;;8.33;;
7150;SDS011;3617;48.836;9.172;2023-01-23T16:25:52;15.13;;;8.40;;
7150;SDS011;3617;48.836;9.172;2023-01-23T16:28:19;16.97;;;8.77;;
7150;SDS011;3617;48.836;9.172;2023-01-23T16:30:46;11.17;;;7.70;;
7150;SDS011;3617;48.836;9.172;2023-01-23T16:33:12;14.20;;;8.87;;
7150;SDS011;3617;48.836;9.172;2023-01-23T16:35:38;15.73;;;9.30;;
7150;SDS011;3617;48.836;9.172;2023-01-23T16:38:05;13.60;;;8.40;;
7150;SDS011;3617;48.836;9.172;2023-01-23T16:40:31;15.97;;;8.60;;
7150;SDS011;3617;48.836;9.172;2023-01-23T16:42:58;14.63;;;8.30;;
7150;SDS011;3617;48.836;9.172;2023-01-23T16:45:27;16.93;;;8.97;;
7150;SDS011;3617;48.836;9.172;2023-01-23T16:47:53;16.00;;;8.40;;